sensor_id;sensor_type;location;lat;lon;timestamp;pressure;altitude;pressure_sealevel;temperature;humidity
82931;BME280;72705;53.346;10.248;2024-02-16T00:01:10;101247.22;;;10.41;100.00
82931;BME280;72705;53.346;10.248;2024-02-16T00:03:35;101235.59;;;10.31;100.00
82931;BME280;72705;53.346;10.248;2024-02-16T00:06:07;101247.81;;;10.35;100.00
82931;BME280;72705;53.346;10.248;2024-02-16T00:08:36;101242.03;;;10.30;100.00
82931;BME280;72705;53.346;10.248;2024-02-16T00:11:21;101247.09;;;10.33;100.00
82931;BME280;72705;53.346;10.248;2024-02-16T00:13:46;101238.00;;;10.34;100.00
82931;BME280;72705;53.346;10.248;2024-02-16T00:16:12;101226.84;;;10.29;100.00
82931;BME280;72705;53.346;10.248;2024-02-16T00:18:37;101237.63;;;10.29;100.00
82931;BME280;72705;53.346;10.248;2024-02-16T00:21:04;101228.81;;;10.27;100.00
82931;BME280;72705;53.346;10.248;2024-02-16T00:23:40;101233.09;;;10.30;100.00
82931;BME280;72705;53.346;10.248;2024-02-16T00:26:05;101224.44;;;10.26;100.00
82931;BME280;72705;53.346;10.248;2024-02-16T00:28:32;101221.72;;;10.26;100.00
82931;BME280;72705;53.346;10.248;2024-02-16T00:30:57;101218.56;;;10.31;100.00
82931;BME280;72705;53.346;10.248;2024-02-16T00:33:31;101216.13;;;10.37;100.00
82931;BME280;72705;53.346;10.248;2024-02-16T00:35:56;101204.41;;;10.29;100.00
82931;BME280;72705;53.346;10.248;2024-02-16T00:38:23;101194.78;;;10.26;100.00
82931;BME280;72705;53.346;10.248;2024-02-16T00:40:49;101194.50;;;10.29;100.00
82931;BME280;72705;53.346;10.248;2024-02-16T00:43:15;101192.66;;;10.30;100.00
82931;BME280;72705;53.346;10.248;2024-02-16T00:45:42;101184.44;;;10.22;100.00
82931;BME280;72705;53.346;10.248;2024-02-16T00:48:09;101184.56;;;10.30;100.00
82931;BME280;72705;53.346;10.248;2024-02-16T00:50:35;101177.75;;;10.26;100.00
82931;BME280;72705;53.346;10.248;2024-02-16T00:53:00;101175.06;;;10.26;100.00
82931;BME280;72705;53.346;10.248;2024-02-16T00:55:29;101170.97;;;10.22;100.00
82931;BME280;72705;53.346;10.248;2024-02-16T00:57:54;101169.28;;;10.11;100.00
82931;BME280;72705;53.346;10.248;2024-02-16T01:00:21;101172.38;;;10.16;100.00
82931;BME280;72705;53.346;10.248;2024-02-16T01:02:49;101169.28;;;10.11;100.00
82931;BME280;72705;53.346;10.248;2024-02-16T01:05:16;101169.06;;;9.95;100.00
82931;BME280;72705;53.346;10.248;2024-02-16T01:07:44;101174.66;;;9.84;100.00
82931;BME280;72705;53.346;10.248;2024-02-16T01:10:10;101175.38;;;9.76;100.00
82931;BME280;72705;53.346;10.248;2024-02-16T01:12:39;101168.88;;;9.69;100.00
82931;BME280;72705;53.346;10.248;2024-02-16T01:15:05;101161.56;;;9.61;100.00
82931;BME280;72705;53.346;10.248;2024-02-16T01:17:31;101167.03;;;9.69;100.00
82931;BME280;72705;53.346;10.248;2024-02-16T01:20:05;101162.09;;;9.74;100.00
82931;BME280;72705;53.346;10.248;2024-02-16T01:22:30;101154.41;;;9.80;100.00
82931;BME280;72705;53.346;10.248;2024-02-16T01:24:56;101161.75;;;9.87;100.00
82931;BME280;72705;53.346;10.248;2024-02-16T01:27:21;101157.19;;;9.88;100.00
82931;BME280;72705;53.346;10.248;2024-02-16T01:29:46;101145.41;;;9.89;100.00
82931;BME280;72705;53.346;10.248;2024-02-16T01:32:12;101157.19;;;9.88;100.00
82931;BME280;72705;53.346;10.248;2024-02-16T01:34:45;101164.00;;;9.92;100.00
82931;BME280;72705;53.346;10.248;2024-02-16T01:37:12;101166.38;;;9.95;100.00
82931;BME280;72705;53.346;10.248;2024-02-16T01:39:37;101160.13;;;9.94;100.00
82931;BME280;72705;53.346;10.248;2024-02-16T01:42:06;101167.88;;;10.07;100.00
82931;BME280;72705;53.346;10.248;2024-02-16T01:44:31;101162.81;;;10.04;100.00
82931;BME280;72705;53.346;10.248;2024-02-16T01:46:56;101150.41;;;9.84;100.00
82931;BME280;72705;53.346;10.248;2024-02-16T01:49:22;101159.06;;;9.87;100.00
82931;BME280;72705;53.346;10.248;2024-02-16T01:51:48;101149.28;;;9.77;100.00
82931;BME280;72705;53.346;10.248;2024-02-16T01:54:15;101149.88;;;9.80;100.00
82931;BME280;72705;53.346;10.248;2024-02-16T01:56:44;101150.19;;;9.67;100.00
82931;BME280;72705;53.346;10.248;2024-02-16T01:59:10;101149.03;;;9.70;100.00
82931;BME280;72705;53.346;10.248;2024-02-16T02:01:39;101148.19;;;9.69;100.00
82931;BME280;72705;53.346;10.248;2024-02-16T02:04:04;101144.50;;;9.70;100.00
82931;BME280;72705;53.346;10.248;2024-02-16T02:06:34;101140.00;;;9.61;100.00
82931;BME280;72705;53.346;10.248;2024-02-16T02:09:00;101139.16;;;9.61;100.00
82931;BME280;72705;53.346;10.248;2024-02-16T02:11:27;101142.00;;;9.59;100.00
82931;BME280;72705;53.346;10.248;2024-02-16T02:13:52;101129.69;;;9.47;100.00
82931;BME280;72705;53.346;10.248;2024-02-16T02:16:19;101142.63;;;9.44;100.00
82931;BME280;72705;53.346;10.248;2024-02-16T02:18:44;101132.25;;;9.49;100.00
82931;BME280;72705;53.346;10.248;2024-02-16T02:21:10;101119.91;;;9.46;100.00
82931;BME280;72705;53.346;10.248;2024-02-16T02:23:35;101130.09;;;9.52;100.00
82931;BME280;72705;53.346;10.248;2024-02-16T02:26:01;101127.00;;;9.47;100.00
82931;BME280;72705;53.346;10.248;2024-02-16T02:28:26;101117.94;;;9.48;100.00
82931;BME280;72705;53.346;10.248;2024-02-16T02:30:51;101114.53;;;9.46;100.00
82931;BME280;72705;53.346;10.248;2024-02-16T02:33:22;101111.16;;;9.44;100.00
82931;BME280;72705;53.346;10.248;2024-02-16T02:35:50;101108.34;;;9.36;100.00
82931;BME280;72705;53.346;10.248;2024-02-16T02:38:23;101109.34;;;9.35;100.00
82931;BME280;72705;53.346;10.248;2024-02-16T02:40:48;101101.53;;;9.32;100.00
82931;BME280;72705;53.346;10.248;2024-02-16T02:43:13;101099.81;;;9.41;100.00
82931;BME280;72705;53.346;10.248;2024-02-16T02:45:39;101095.88;;;9.35;100.00
82931;BME280;72705;53.346;10.248;2024-02-16T02:48:16;101105.25;;;9.31;100.00
82931;BME280;72705;53.346;10.248;2024-02-16T02:50:46;101093.75;;;9.29;100.00
82931;BME280;72705;53.346;10.248;2024-02-16T02:53:18;101088.66;;;9.26;100.00
82931;BME280;72705;53.346;10.248;2024-02-16T02:55:56;101092.06;;;9.28;100.00
82931;BME280;72705;53.346;10.248;2024-02-16T02:58:22;101082.00;;;9.30;100.00
82931;BME280;72705;53.346;10.248;2024-02-16T03:00:48;101088.53;;;9.27;100.00
82931;BME280;72705;53.346;10.248;2024-02-16T03:03:18;101083.59;;;9.23;100.00
82931;BME280;72705;53.346;10.248;2024-02-16T03:05:43;101069.00;;;9.16;100.00
82931;BME280;72705;53.346;10.248;2024-02-16T03:08:08;101081.47;;;9.17;100.00
82931;BME280;72705;53.346;10.248;2024-02-16T03:10:36;101084.75;;;9.11;100.00
82931;BME280;72705;53.346;10.248;2024-02-16T03:13:02;101089.16;;;9.02;100.00
82931;BME280;72705;53.346;10.248;2024-02-16T03:15:28;101088.59;;;8.99;100.00
82931;BME280;72705;53.346;10.248;2024-02-16T03:17:54;101074.84;;;9.02;100.00
82931;BME280;72705;53.346;10.248;2024-02-16T03:20:24;101067.22;;;8.97;100.00
82931;BME280;72705;53.346;10.248;2024-02-16T03:22:56;101068.78;;;9.00;100.00
82931;BME280;72705;53.346;10.248;2024-02-16T03:25:21;101065.50;;;9.06;100.00
82931;BME280;72705;53.346;10.248;2024-02-16T03:27:48;101050.75;;;9.10;100.00
82931;BME280;72705;53.346;10.248;2024-02-16T03:30:14;101057.97;;;9.09;100.00
82931;BME280;72705;53.346;10.248;2024-02-16T03:32:42;101057.41;;;9.52;100.00
82931;BME280;72705;53.346;10.248;2024-02-16T03:35:08;101058.63;;;9.67;100.00
82931;BME280;72705;53.346;10.248;2024-02-16T03:37:33;101055.94;;;9.67;100.00
82931;BME280;72705;53.346;10.248;2024-02-16T03:40:06;101051.66;;;9.74;100.00
82931;BME280;72705;53.346;10.248;2024-02-16T03:42:39;101032.47;;;9.78;100.00
82931;BME280;72705;53.346;10.248;2024-02-16T03:45:14;101019.13;;;9.86;100.00
82931;BME280;72705;53.346;10.248;2024-02-16T03:47:43;101033.25;;;9.88;100.00
82931;BME280;72705;53.346;10.248;2024-02-16T03:50:09;101038.03;;;9.94;100.00
82931;BME280;72705;53.346;10.248;2024-02-16T03:52:34;101037.34;;;10.19;100.00
82931;BME280;72705;53.346;10.248;2024-02-16T03:55:18;101025.16;;;10.15;100.00
82931;BME280;72705;53.346;10.248;2024-02-16T03:57:46;101041.22;;;10.34;100.00
82931;BME280;72705;53.346;10.248;2024-02-16T04:00:11;101029.81;;;10.40;100.00
82931;BME280;72705;53.346;10.248;2024-02-16T04:02:38;101032.34;;;10.42;100.00
82931;BME280;72705;53.346;10.248;2024-02-16T04:05:04;101024.72;;;10.37;100.00
82931;BME280;72705;53.346;10.248;2024-02-16T04:07:31;101022.44;;;10.42;100.00
82931;BME280;72705;53.346;10.248;2024-02-16T04:09:58;101024.94;;;10.44;100.00
82931;BME280;72705;53.346;10.248;2024-02-16T04:12:25;101029.31;;;10.63;100.00
82931;BME280;72705;53.346;10.248;2024-02-16T04:14:51;101031.63;;;10.58;100.00
82931;BME280;72705;53.346;10.248;2024-02-16T04:17:19;101034.34;;;10.58;100.00
82931;BME280;72705;53.346;10.248;2024-02-16T04:19:45;101030.88;;;10.47;100.00
82931;BME280;72705;53.346;10.248;2024-02-16T04:22:19;101033.13;;;10.52;100.00
82931;BME280;72705;53.346;10.248;2024-02-16T04:24:47;101028.94;;;10.58;100.00
82931;BME280;72705;53.346;10.248;2024-02-16T04:27:13;101030.34;;;10.44;100.00
82931;BME280;72705;53.346;10.248;2024-02-16T04:29:40;101015.34;;;10.41;100.00
82931;BME280;72705;53.346;10.248;2024-02-16T04:32:06;101016.63;;;10.37;100.00
82931;BME280;72705;53.346;10.248;2024-02-16T04:34:32;101038.28;;;10.45;100.00
82931;BME280;72705;53.346;10.248;2024-02-16T04:37:00;101036.03;;;10.59;100.00
82931;BME280;72705;53.346;10.248;2024-02-16T04:39:25;101036.56;;;10.62;100.00
82931;BME280;72705;53.346;10.248;2024-02-16T04:41:57;101033.50;;;10.57;100.00
82931;BME280;72705;53.346;10.248;2024-02-16T04:44:28;101029.56;;;10.51;100.00
82931;BME280;72705;53.346;10.248;2024-02-16T04:46:54;101033.78;;;10.72;100.00
82931;BME280;72705;53.346;10.248;2024-02-16T04:49:20;101024.25;;;10.60;100.00
82931;BME280;72705;53.346;10.248;2024-02-16T04:51:47;101023.63;;;10.66;100.00
82931;BME280;72705;53.346;10.248;2024-02-16T04:54:12;101022.31;;;10.52;100.00
82931;BME280;72705;53.346;10.248;2024-02-16T04:56:39;101028.25;;;10.55;100.00
82931;BME280;72705;53.346;10.248;2024-02-16T04:59:05;101024.88;;;10.53;100.00
82931;BME280;72705;53.346;10.248;2024-02-16T05:01:36;101009.13;;;10.67;100.00
82931;BME280;72705;53.346;10.248;2024-02-16T05:04:03;101013.13;;;10.63;100.00
82931;BME280;72705;53.346;10.248;2024-02-16T05:06:28;101009.78;;;10.61;100.00
82931;BME280;72705;53.346;10.248;2024-02-16T05:09:02;101015.81;;;10.63;100.00
82931;BME280;72705;53.346;10.248;2024-02-16T05:11:35;101012.63;;;10.59;100.00
82931;BME280;72705;53.346;10.248;2024-02-16T05:14:00;101016.00;;;10.61;100.00
82931;BME280;72705;53.346;10.248;2024-02-16T05:16:27;101016.44;;;10.57;100.00
82931;BME280;72705;53.346;10.248;2024-02-16T05:18:58;101022.22;;;10.62;100.00
82931;BME280;72705;53.346;10.248;2024-02-16T05:21:24;101021.69;;;10.58;100.00
82931;BME280;72705;53.346;10.248;2024-02-16T05:23:49;101016.31;;;10.58;100.00
82931;BME280;72705;53.346;10.248;2024-02-16T05:26:14;101005.28;;;10.51;100.00
82931;BME280;72705;53.346;10.248;2024-02-16T05:28:40;101010.69;;;10.51;100.00
82931;BME280;72705;53.346;10.248;2024-02-16T05:31:18;101005.63;;;10.48;100.00
82931;BME280;72705;53.346;10.248;2024-02-16T05:33:51;101006.50;;;10.57;100.00
82931;BME280;72705;53.346;10.248;2024-02-16T05:36:20;101012.38;;;10.52;100.00
82931;BME280;72705;53.346;10.248;2024-02-16T05:38:52;101002.06;;;10.48;100.00
82931;BME280;72705;53.346;10.248;2024-02-16T05:41:35;101009.69;;;10.52;100.00
82931;BME280;72705;53.346;10.248;2024-02-16T05:44:02;101008.13;;;10.50;100.00
82931;BME280;72705;53.346;10.248;2024-02-16T05:46:30;101003.94;;;10.47;100.00
82931;BME280;72705;53.346;10.248;2024-02-16T05:49:05;100998.69;;;10.46;100.00
82931;BME280;72705;53.346;10.248;2024-02-16T05:51:47;101011.00;;;10.48;100.00
82931;BME280;72705;53.346;10.248;2024-02-16T05:54:31;101012.00;;;10.47;100.00
82931;BME280;72705;53.346;10.248;2024-02-16T05:56:56;101011.31;;;10.45;100.00
82931;BME280;72705;53.346;10.248;2024-02-16T05:59:24;101017.03;;;10.42;100.00
82931;BME280;72705;53.346;10.248;2024-02-16T06:01:51;101018.41;;;10.46;100.00
82931;BME280;72705;53.346;10.248;2024-02-16T06:04:16;101017.31;;;10.39;100.00
82931;BME280;72705;53.346;10.248;2024-02-16T06:06:42;101015.16;;;10.25;100.00
82931;BME280;72705;53.346;10.248;2024-02-16T06:09:07;101013.16;;;10.27;100.00
82931;BME280;72705;53.346;10.248;2024-02-16T06:11:32;101015.72;;;10.29;100.00
82931;BME280;72705;53.346;10.248;2024-02-16T06:13:58;101013.16;;;10.27;100.00
82931;BME280;72705;53.346;10.248;2024-02-16T06:16:23;101014.25;;;10.34;100.00
82931;BME280;72705;53.346;10.248;2024-02-16T06:18:48;101011.41;;;10.18;100.00
82931;BME280;72705;53.346;10.248;2024-02-16T06:21:14;100996.81;;;10.11;100.00
82931;BME280;72705;53.346;10.248;2024-02-16T06:23:41;101012.22;;;10.19;100.00
82931;BME280;72705;53.346;10.248;2024-02-16T06:26:06;100995.19;;;10.00;100.00
82931;BME280;72705;53.346;10.248;2024-02-16T06:28:32;101002.88;;;10.13;100.00
82931;BME280;72705;53.346;10.248;2024-02-16T06:30:57;101012.13;;;10.10;100.00
82931;BME280;72705;53.346;10.248;2024-02-16T06:33:22;101005.53;;;10.05;100.00
82931;BME280;72705;53.346;10.248;2024-02-16T06:35:47;101003.22;;;10.10;100.00
82931;BME280;72705;53.346;10.248;2024-02-16T06:38:15;100994.28;;;10.09;100.00
82931;BME280;72705;53.346;10.248;2024-02-16T06:40:42;101003.91;;;10.12;100.00
82931;BME280;72705;53.346;10.248;2024-02-16T06:43:08;100997.44;;;10.05;100.00
82931;BME280;72705;53.346;10.248;2024-02-16T06:45:36;100995.81;;;10.12;100.00
82931;BME280;72705;53.346;10.248;2024-02-16T06:48:01;101002.50;;;10.08;100.00
82931;BME280;72705;53.346;10.248;2024-02-16T06:50:29;100998.19;;;10.15;100.00
82931;BME280;72705;53.346;10.248;2024-02-16T06:52:54;101005.28;;;10.16;100.00
82931;BME280;72705;53.346;10.248;2024-02-16T06:55:20;101012.41;;;10.17;100.00
82931;BME280;72705;53.346;10.248;2024-02-16T06:57:46;101003.22;;;10.10;100.00
82931;BME280;72705;53.346;10.248;2024-02-16T07:00:12;101013.25;;;10.18;100.00
82931;BME280;72705;53.346;10.248;2024-02-16T07:02:38;101010.91;;;10.05;100.00
82931;BME280;72705;53.346;10.248;2024-02-16T07:05:04;101003.13;;;10.02;100.00
82931;BME280;72705;53.346;10.248;2024-02-16T07:07:30;101011.59;;;10.07;100.00
82931;BME280;72705;53.346;10.248;2024-02-16T07:09:57;101009.91;;;10.06;100.00
82931;BME280;72705;53.346;10.248;2024-02-16T07:12:22;101011.59;;;10.07;100.00
82931;BME280;72705;53.346;10.248;2024-02-16T07:14:48;101024.63;;;10.11;100.00
82931;BME280;72705;53.346;10.248;2024-02-16T07:17:15;101029.84;;;10.13;100.00
82931;BME280;72705;53.346;10.248;2024-02-16T07:19:40;101030.44;;;10.07;100.00
82931;BME280;72705;53.346;10.248;2024-02-16T07:22:09;101030.38;;;9.99;100.00
82931;BME280;72705;53.346;10.248;2024-02-16T07:24:35;101019.91;;;9.96;100.00
82931;BME280;72705;53.346;10.248;2024-02-16T07:27:00;101034.06;;;9.98;100.00
82931;BME280;72705;53.346;10.248;2024-02-16T07:29:27;101031.75;;;10.03;100.00
82931;BME280;72705;53.346;10.248;2024-02-16T07:31:53;101022.97;;;10.01;100.00
82931;BME280;72705;53.346;10.248;2024-02-16T07:34:19;101018.66;;;10.08;100.00
82931;BME280;72705;53.346;10.248;2024-02-16T07:36:45;101016.13;;;10.06;100.00
82931;BME280;72705;53.346;10.248;2024-02-16T07:39:10;101009.84;;;10.15;100.00
82931;BME280;72705;53.346;10.248;2024-02-16T07:41:37;101024.91;;;10.18;100.00
82931;BME280;72705;53.346;10.248;2024-02-16T07:44:04;101024.91;;;10.18;100.00
82931;BME280;72705;53.346;10.248;2024-02-16T07:46:29;101029.66;;;10.24;100.00
82931;BME280;72705;53.346;10.248;2024-02-16T07:48:55;101031.56;;;10.32;100.00
82931;BME280;72705;53.346;10.248;2024-02-16T07:51:20;101026.72;;;10.35;100.00
82931;BME280;72705;53.346;10.248;2024-02-16T07:53:45;101034.97;;;10.51;100.00
82931;BME280;72705;53.346;10.248;2024-02-16T07:56:14;101035.88;;;10.60;100.00
82931;BME280;72705;53.346;10.248;2024-02-16T07:58:43;101032.09;;;10.71;100.00
82931;BME280;72705;53.346;10.248;2024-02-16T08:01:08;101043.94;;;10.78;100.00
82931;BME280;72705;53.346;10.248;2024-02-16T08:03:35;101045.44;;;10.72;100.00
82931;BME280;72705;53.346;10.248;2024-02-16T08:06:00;101043.81;;;10.79;99.73
82931;BME280;72705;53.346;10.248;2024-02-16T08:08:26;101033.47;;;10.75;100.00
82931;BME280;72705;53.346;10.248;2024-02-16T08:10:51;101042.00;;;10.88;99.48
82931;BME280;72705;53.346;10.248;2024-02-16T08:13:17;101023.88;;;10.98;98.94
82931;BME280;72705;53.346;10.248;2024-02-16T08:15:43;101037.94;;;11.10;97.53
82931;BME280;72705;53.346;10.248;2024-02-16T08:18:08;101039.19;;;11.23;98.01
82931;BME280;72705;53.346;10.248;2024-02-16T08:20:36;101023.19;;;11.30;96.44
82931;BME280;72705;53.346;10.248;2024-02-16T08:23:02;101024.44;;;11.44;95.64
82931;BME280;72705;53.346;10.248;2024-02-16T08:25:31;101019.22;;;11.42;95.71
82931;BME280;72705;53.346;10.248;2024-02-16T08:27:58;101017.03;;;11.46;95.34
82931;BME280;72705;53.346;10.248;2024-02-16T08:30:23;101011.69;;;11.54;94.66
82931;BME280;72705;53.346;10.248;2024-02-16T08:32:50;101014.25;;;11.63;94.36
82931;BME280;72705;53.346;10.248;2024-02-16T08:35:19;101008.00;;;11.63;94.37
82931;BME280;72705;53.346;10.248;2024-02-16T08:37:44;101013.91;;;11.58;95.01
82931;BME280;72705;53.346;10.248;2024-02-16T08:40:12;101011.03;;;11.68;94.85
82931;BME280;72705;53.346;10.248;2024-02-16T08:42:40;101012.75;;;11.69;93.87
82931;BME280;72705;53.346;10.248;2024-02-16T08:45:07;101018.88;;;11.79;94.50
82931;BME280;72705;53.346;10.248;2024-02-16T08:47:34;101012.81;;;11.85;94.12
82931;BME280;72705;53.346;10.248;2024-02-16T08:49:59;101015.06;;;11.90;92.82
82931;BME280;72705;53.346;10.248;2024-02-16T08:52:26;101012.66;;;11.87;92.52
82931;BME280;72705;53.346;10.248;2024-02-16T08:54:51;101020.63;;;11.88;92.46
82931;BME280;72705;53.346;10.248;2024-02-16T08:57:16;101020.97;;;11.93;92.06
82931;BME280;72705;53.346;10.248;2024-02-16T08:59:42;101012.81;;;11.85;91.99
82931;BME280;72705;53.346;10.248;2024-02-16T09:02:09;101014.97;;;11.73;93.37
82931;BME280;72705;53.346;10.248;2024-02-16T09:04:35;101014.44;;;11.70;93.66
82931;BME280;72705;53.346;10.248;2024-02-16T09:07:00;101013.94;;;11.66;93.77
82931;BME280;72705;53.346;10.248;2024-02-16T09:09:26;101011.53;;;11.63;93.97
82931;BME280;72705;53.346;10.248;2024-02-16T09:11:51;101009.34;;;11.67;93.79
82931;BME280;72705;53.346;10.248;2024-02-16T09:14:18;101013.94;;;11.66;92.93
82931;BME280;72705;53.346;10.248;2024-02-16T09:16:43;101004.28;;;11.64;93.55
82931;BME280;72705;53.346;10.248;2024-02-16T09:19:09;101015.53;;;11.77;93.31
82931;BME280;72705;53.346;10.248;2024-02-16T09:21:34;101012.66;;;11.79;93.38
82931;BME280;72705;53.346;10.248;2024-02-16T09:24:00;101015.25;;;11.96;93.20
82931;BME280;72705;53.346;10.248;2024-02-16T09:26:27;101019.47;;;12.07;92.04
82931;BME280;72705;53.346;10.248;2024-02-16T09:28:56;101015.09;;;12.22;91.42
82931;BME280;72705;53.346;10.248;2024-02-16T09:31:21;101018.16;;;12.35;90.80
82931;BME280;72705;53.346;10.248;2024-02-16T09:33:47;101005.50;;;12.36;91.25
82931;BME280;72705;53.346;10.248;2024-02-16T09:36:12;101010.56;;;12.39;91.37
82931;BME280;72705;53.346;10.248;2024-02-16T09:38:37;101003.81;;;12.43;90.94
82931;BME280;72705;53.346;10.248;2024-02-16T09:41:03;101003.97;;;12.41;91.70
82931;BME280;72705;53.346;10.248;2024-02-16T09:43:29;101016.16;;;12.62;89.30
82931;BME280;72705;53.346;10.248;2024-02-16T09:46:04;101010.25;;;12.58;89.78
82931;BME280;72705;53.346;10.248;2024-02-16T09:48:30;101017.00;;;12.62;89.21
82931;BME280;72705;53.346;10.248;2024-02-16T09:50:57;101012.78;;;12.51;89.56
82931;BME280;72705;53.346;10.248;2024-02-16T09:53:27;101013.78;;;12.42;89.45
82931;BME280;72705;53.346;10.248;2024-02-16T09:55:53;101009.22;;;12.43;90.64
82931;BME280;72705;53.346;10.248;2024-02-16T09:58:19;101012.09;;;12.49;90.51
82931;BME280;72705;53.346;10.248;2024-02-16T10:00:54;101008.88;;;12.62;88.75
82931;BME280;72705;53.346;10.248;2024-02-16T10:05:50;101006.69;;;12.82;88.80
82931;BME280;72705;53.346;10.248;2024-02-16T10:08:16;101008.88;;;12.86;87.97
82931;BME280;72705;53.346;10.248;2024-02-16T10:10:42;101015.09;;;13.03;87.98
82931;BME280;72705;53.346;10.248;2024-02-16T10:13:07;101011.53;;;13.11;87.57
82931;BME280;72705;53.346;10.248;2024-02-16T10:15:36;101023.38;;;13.26;87.15
82931;BME280;72705;53.346;10.248;2024-02-16T10:18:03;101007.47;;;13.31;86.42
82931;BME280;72705;53.346;10.248;2024-02-16T10:20:31;101011.97;;;13.47;86.23
82931;BME280;72705;53.346;10.248;2024-02-16T10:23:10;101019.06;;;13.48;85.21
82931;BME280;72705;53.346;10.248;2024-02-16T10:25:37;101013.91;;;13.69;84.91
82931;BME280;72705;53.346;10.248;2024-02-16T10:28:05;101018.44;;;13.76;83.91
82931;BME280;72705;53.346;10.248;2024-02-16T10:30:34;101020.34;;;13.68;84.82
82931;BME280;72705;53.346;10.248;2024-02-16T10:33:00;101026.06;;;13.81;83.46
82931;BME280;72705;53.346;10.248;2024-02-16T10:35:28;101029.81;;;13.72;83.90
82931;BME280;72705;53.346;10.248;2024-02-16T10:37:54;101046.19;;;13.87;84.10
82931;BME280;72705;53.346;10.248;2024-02-16T10:40:22;101024.13;;;13.90;83.94
82931;BME280;72705;53.346;10.248;2024-02-16T10:42:51;101039.34;;;13.99;82.86
82931;BME280;72705;53.346;10.248;2024-02-16T10:45:17;101041.09;;;13.92;83.06
82931;BME280;72705;53.346;10.248;2024-02-16T10:47:44;101030.47;;;13.82;83.45
82931;BME280;72705;53.346;10.248;2024-02-16T10:50:09;101020.34;;;13.76;83.12
82931;BME280;72705;53.346;10.248;2024-02-16T10:52:37;101032.34;;;13.82;85.01
82931;BME280;72705;53.346;10.248;2024-02-16T10:55:04;101018.19;;;13.63;87.72
82931;BME280;72705;53.346;10.248;2024-02-16T10:57:30;101014.50;;;13.48;88.76
82931;BME280;72705;53.346;10.248;2024-02-16T10:59:56;101014.88;;;13.45;89.16
82931;BME280;72705;53.346;10.248;2024-02-16T11:02:23;101010.66;;;13.34;90.40
82931;BME280;72705;53.346;10.248;2024-02-16T11:04:51;101020.06;;;13.55;89.25
82931;BME280;72705;53.346;10.248;2024-02-16T11:07:18;101017.97;;;13.73;88.65
82931;BME280;72705;53.346;10.248;2024-02-16T11:09:45;101022.09;;;13.92;87.13
82931;BME280;72705;53.346;10.248;2024-02-16T11:12:14;101010.84;;;14.03;86.77
82931;BME280;72705;53.346;10.248;2024-02-16T11:14:50;101006.34;;;14.18;86.50
82931;BME280;72705;53.346;10.248;2024-02-16T11:17:22;101010.28;;;14.38;85.90
82931;BME280;72705;53.346;10.248;2024-02-16T11:19:48;101011.56;;;14.50;83.71
82931;BME280;72705;53.346;10.248;2024-02-16T11:22:18;101004.09;;;14.52;83.93
82931;BME280;72705;53.346;10.248;2024-02-16T11:24:53;101005.78;;;14.53;82.71
82931;BME280;72705;53.346;10.248;2024-02-16T11:27:18;101013.25;;;14.51;84.01
82931;BME280;72705;53.346;10.248;2024-02-16T11:29:45;101006.06;;;14.58;84.00
82931;BME280;72705;53.346;10.248;2024-02-16T11:32:10;101012.28;;;14.67;83.34
82931;BME280;72705;53.346;10.248;2024-02-16T11:34:36;100992.66;;;14.80;82.23
82931;BME280;72705;53.346;10.248;2024-02-16T11:37:03;100998.00;;;14.88;81.18
82931;BME280;72705;53.346;10.248;2024-02-16T11:39:30;101003.81;;;14.85;80.32
82931;BME280;72705;53.346;10.248;2024-02-16T11:42:08;100999.13;;;14.79;82.38
82931;BME280;72705;53.346;10.248;2024-02-16T11:44:36;100990.41;;;14.83;80.69
82931;BME280;72705;53.346;10.248;2024-02-16T11:47:02;100983.28;;;14.82;80.56
82931;BME280;72705;53.346;10.248;2024-02-16T11:49:32;100984.22;;;14.75;81.30
82931;BME280;72705;53.346;10.248;2024-02-16T11:52:00;100990.22;;;14.85;80.31
82931;BME280;72705;53.346;10.248;2024-02-16T11:54:25;100989.56;;;14.83;80.43
82931;BME280;72705;53.346;10.248;2024-02-16T11:56:52;100991.72;;;14.87;78.93
82931;BME280;72705;53.346;10.248;2024-02-16T11:59:19;100994.00;;;14.98;79.58
82931;BME280;72705;53.346;10.248;2024-02-16T12:01:55;100994.19;;;14.97;80.72
82931;BME280;72705;53.346;10.248;2024-02-16T12:04:27;100989.22;;;15.01;78.46
82931;BME280;72705;53.346;10.248;2024-02-16T12:07:03;100989.41;;;14.99;79.16
82931;BME280;72705;53.346;10.248;2024-02-16T12:09:28;100991.09;;;15.00;79.35
82931;BME280;72705;53.346;10.248;2024-02-16T12:11:57;100997.00;;;15.04;79.02
82931;BME280;72705;53.346;10.248;2024-02-16T12:14:22;100989.22;;;15.01;80.00
82931;BME280;72705;53.346;10.248;2024-02-16T12:16:49;101004.22;;;15.11;78.34
82931;BME280;72705;53.346;10.248;2024-02-16T12:19:16;100999.16;;;15.08;78.77
82931;BME280;72705;53.346;10.248;2024-02-16T12:21:42;100997.09;;;15.10;78.98
82931;BME280;72705;53.346;10.248;2024-02-16T12:24:07;101007.97;;;15.10;78.90
82931;BME280;72705;53.346;10.248;2024-02-16T12:26:33;101008.34;;;15.07;79.31
82931;BME280;72705;53.346;10.248;2024-02-16T12:28:58;101008.59;;;15.12;78.99
82931;BME280;72705;53.346;10.248;2024-02-16T12:31:23;101005.16;;;15.18;78.92
82931;BME280;72705;53.346;10.248;2024-02-16T12:33:49;101013.03;;;15.13;79.23
82931;BME280;72705;53.346;10.248;2024-02-16T12:36:14;101005.91;;;15.12;78.82
82931;BME280;72705;53.346;10.248;2024-02-16T12:38:40;101009.09;;;15.16;79.29